Time;durP1;ratioP1;P1;durP2;ratioP2;P2;SDS_P1;SDS_P2;PMS_P1;PMS_P2;Temp;Humidity;BMP_temperature;BMP_pressure;BME280_temperature;BME280_humidity;BME280_pressure;Samples;Min_cycle;Max_cycle;Signal;HPM_P1;HPM_P2
2022/03/29 00:00:43;;;;;;;26.85;16.48;;;;;;;6.41;100.00;101821.50;6219085;23;20020;-80
2022/03/29 00:03:12;;;;;;;22.48;17.10;;;;;;;6.41;100.00;101825.84;6220452;23;20020;-79
2022/03/29 00:05:40;;;;;;;24.52;15.95;;;;;;;6.40;100.00;101824.94;6222914;23;20012;-79
2022/03/29 00:08:09;;;;;;;26.13;17.55;;;;;;;6.39;100.00;101817.94;6194430;23;20031;-80
2022/03/29 00:10:37;;;;;;;27.42;17.38;;;;;;;6.38;100.00;101815.25;6164856;23;20031;-79
2022/03/29 00:13:08;;;;;;;;;;;;;;;6.35;100.00;101816.03;6150495;23;20337;-79
2022/03/29 00:15:36;;;;;;;29.60;18.45;;;;;;;6.30;100.00;101824.56;6195892;23;19923;-79
2022/03/29 00:18:05;;;;;;;24.85;18.23;;;;;;;6.27;100.00;101811.34;6209517;23;20013;-80
2022/03/29 00:20:34;;;;;;;24.58;17.98;;;;;;;6.25;100.00;101817.41;6198213;23;20024;-79
2022/03/29 00:23:03;;;;;;;29.40;19.25;;;;;;;6.25;100.00;101811.28;6218222;23;20039;-80
2022/03/29 00:25:32;;;;;;;24.90;17.33;;;;;;;6.22;100.00;101819.94;6194365;23;20016;-79
2022/03/29 00:28:00;;;;;;;26.13;17.98;;;;;;;6.21;100.00;101810.28;6231357;23;20318;-80
2022/03/29 00:30:29;;;;;;;32.97;17.77;;;;;;;6.20;100.00;101811.13;6197324;23;20027;-79
2022/03/29 00:32:58;;;;;;;25.42;17.48;;;;;;;6.20;100.00;101802.38;6210724;23;20354;-80
2022/03/29 00:35:26;;;;;;;28.02;17.83;;;;;;;6.19;100.00;101801.50;6197798;23;20011;-79
2022/03/29 00:37:56;;;;;;;34.95;19.38;;;;;;;6.17;100.00;101792.69;6209990;23;20017;-79
2022/03/29 00:40:24;;;;;;;32.53;21.75;;;;;;;6.16;100.00;101797.88;6222072;23;20024;-79
2022/03/29 00:42:53;;;;;;;30.98;21.98;;;;;;;6.14;100.00;101792.56;6209257;23;20027;-79
2022/03/29 00:45:21;;;;;;;35.03;23.75;;;;;;;6.10;100.00;101790.69;6194600;23;20028;-78
2022/03/29 00:47:50;;;;;;;38.05;24.08;;;;;;;6.12;100.00;101788.13;6216976;23;20012;-80
2022/03/29 00:50:19;;;;;;;39.22;24.60;;;;;;;6.09;100.00;101778.44;6196804;23;20512;-79
2022/03/29 00:52:48;;;;;;;38.72;23.92;;;;;;;6.11;100.00;101774.16;6209936;23;20013;-80
2022/03/29 00:55:16;;;;;;;32.22;22.52;;;;;;;6.12;100.00;101777.66;6194812;23;20047;-79
2022/03/29 00:57:49;;;;;;;31.17;21.25;;;;;;;6.15;100.00;101775.16;6221048;23;20467;-80
2022/03/29 01:00:18;;;;;;;32.97;21.20;;;;;;;6.15;100.00;101769.94;6149509;23;20246;-79
2022/03/29 01:02:47;;;;;;;31.73;19.10;;;;;;;6.11;100.00;101761.06;6217742;23;20012;-80
2022/03/29 01:05:17;;;;;;;30.88;19.10;;;;;;;6.12;100.00;101759.34;6163402;23;20492;-79
2022/03/29 01:07:46;;;;;;;27.97;18.33;;;;;;;6.13;100.00;101756.78;6248460;23;20016;-80
2022/03/29 01:10:14;;;;;;;34.42;20.02;;;;;;;6.13;100.00;101751.56;6171818;23;20243;-80
2022/03/29 01:12:43;;;;;;;29.92;19.85;;;;;;;6.16;100.00;101742.91;6215301;23;20027;-80
2022/03/29 01:15:13;;;;;;;30.05;19.67;;;;;;;6.16;100.00;101743.81;6209048;23;20326;-80
2022/03/29 01:17:43;;;;;;;30.10;21.50;;;;;;;6.15;100.00;101736.78;6247044;23;20023;-80
2022/03/29 01:20:16;;;;;;;32.90;20.95;;;;;;;6.14;100.00;101735.00;6171572;23;20122;-79
2022/03/29 01:22:49;;;;;;;32.88;22.00;;;;;;;6.13;100.00;101727.13;6248038;23;20020;-80
2022/03/29 01:25:28;;;;;;;34.97;19.80;;;;;;;6.13;100.00;101728.00;6196801;23;20016;-80
2022/03/29 01:27:58;;;;;;;33.67;22.08;;;;;;;6.12;100.00;101734.06;6185497;23;20009;-80
2022/03/29 01:30:27;;;;;;;;;;;;;;;6.09;100.00;101722.59;6223749;23;20016;-80
2022/03/29 01:32:56;;;;;;;34.67;21.45;;;;;;;6.06;100.00;101718.16;6232609;23;19915;-79
2022/03/29 01:35:25;;;;;;;36.60;22.75;;;;;;;6.05;100.00;101719.00;6246602;23;20024;-80
2022/03/29 01:37:54;;;;;;;32.90;20.42;;;;;;;6.07;100.00;101729.50;6184024;23;20331;-80
2022/03/29 01:40:25;;;;;;;33.25;22.08;;;;;;;6.04;100.00;101728.56;6194194;23;20020;-79
2022/03/29 01:42:58;;;;;;;31.38;20.08;;;;;;;6.03;100.00;101728.50;6220897;23;20331;-80
2022/03/29 01:45:29;;;;;;;39.42;21.77;;;;;;;6.05;100.00;101732.09;6223640;23;20357;-79
2022/03/29 01:47:58;;;;;;;33.47;21.60;;;;;;;6.05;100.00;101727.72;6207438;23;20012;-80
2022/03/29 01:50:27;;;;;;;28.73;20.10;;;;;;;6.05;100.00;101719.88;6184583;23;20031;-80
2022/03/29 01:52:56;;;;;;;31.63;19.80;;;;;;;6.07;100.00;101722.56;6197128;23;20026;-80
2022/03/29 01:55:25;;;;;;;28.13;20.38;;;;;;;6.08;100.00;101716.47;6216115;23;20016;-79
2022/03/29 01:57:53;;;;;;;33.45;20.52;;;;;;;6.08;100.00;101719.09;6196700;23;20027;-80
2022/03/29 02:00:33;;;;;;;35.63;21.40;;;;;;;6.09;100.00;101709.50;6200342;23;20020;-80
2022/03/29 02:03:05;;;;;;;28.67;19.40;;;;;;;6.10;100.00;101703.44;6164388;23;20019;-80
2022/03/29 02:05:33;;;;;;;33.90;20.02;;;;;;;6.11;100.00;101706.13;6221597;23;20024;-80
2022/03/29 02:08:03;;;;;;;34.33;20.80;;;;;;;6.12;100.00;101707.00;6196508;23;20478;-79
2022/03/29 02:10:31;;;;;;;37.72;20.80;;;;;;;6.13;100.00;101703.56;6192957;23;20446;-80
2022/03/29 02:13:00;;;;;;;32.92;20.73;;;;;;;6.14;100.00;101700.09;6210669;23;20437;-80
2022/03/29 02:15:31;;;;;;;32.63;21.00;;;;;;;6.13;100.00;101701.84;6176735;23;20027;-80
2022/03/29 02:18:00;;;;;;;37.72;21.10;;;;;;;6.12;100.00;101702.66;6175371;23;20134;-80
2022/03/29 02:20:28;;;;;;;33.10;21.52;;;;;;;6.12;100.00;101701.78;6163134;23;20020;-79
2022/03/29 02:23:07;;;;;;;32.63;20.55;;;;;;;6.11;100.00;101700.88;6249274;23;20024;-80
2022/03/29 02:25:36;;;;;;;34.97;21.02;;;;;;;6.10;100.00;101695.59;6190632;23;20020;-79
2022/03/29 02:28:05;;;;;;;34.03;21.52;;;;;;;6.11;100.00;101692.16;6195556;23;20012;-80
2022/03/29 02:30:34;;;;;;;36.80;21.88;;;;;;;6.09;100.00;101691.19;6224508;23;20043;-80
2022/03/29 02:33:04;;;;;;;41.40;23.50;;;;;;;6.07;100.00;101693.78;6159972;23;20332;-80
2022/03/29 02:35:33;;;;;;;34.92;20.88;;;;;;;6.07;100.00;101698.09;6187380;23;20204;-79
2022/03/29 02:38:02;;;;;;;40.60;21.33;;;;;;;6.07;100.00;101691.16;6216045;23;20537;-79
2022/03/29 02:40:30;;;;;;;33.55;20.95;;;;;;;6.05;100.00;101687.59;6251327;23;20024;-80
2022/03/29 02:42:59;;;;;;;36.25;20.63;;;;;;;6.04;100.00;101699.75;6216849;23;20450;-80
2022/03/29 02:45:27;;;;;;;32.63;20.92;;;;;;;6.02;100.00;101695.31;6214477;23;20023;-79
2022/03/29 02:47:58;;;;;;;29.90;19.90;;;;;;;6.00;100.00;101695.28;6220591;23;20027;-80
2022/03/29 02:50:27;;;;;;;31.05;19.90;;;;;;;5.99;100.00;101695.22;6178138;23;20020;-80
2022/03/29 02:53:01;;;;;;;31.40;19.55;;;;;;;6.01;100.00;101689.22;6193426;23;20020;-80
2022/03/29 02:55:33;;;;;;;34.85;20.45;;;;;;;6.01;100.00;101681.38;6215705;23;20027;-80
2022/03/29 02:58:01;;;;;;;37.65;19.58;;;;;;;6.03;100.00;101681.38;6219448;23;20043;-80
2022/03/29 03:00:30;;;;;;;43.95;19.48;;;;;;;6.03;100.00;101676.16;6223282;23;20034;-80
2022/03/29 03:02:59;;;;;;;31.08;19.90;;;;;;;6.04;100.00;101677.94;6219971;23;20351;-80
2022/03/29 03:05:29;;;;;;;30.50;19.10;;;;;;;6.05;100.00;101684.97;6188551;23;20023;-80
2022/03/29 03:07:58;;;;;;;32.65;19.10;;;;;;;6.06;100.00;101671.03;6244503;23;20016;-80
2022/03/29 03:10:26;;;;;;;32.78;18.95;;;;;;;6.05;100.00;101675.41;6174880;23;20016;-79
2022/03/29 03:12:55;;;;;;;32.33;20.70;;;;;;;6.06;100.00;101663.19;6220165;23;20024;-79
2022/03/29 03:15:25;;;;;;;30.10;18.52;;;;;;;6.05;100.00;101658.81;6200176;23;20023;-79
2022/03/29 03:17:54;;;;;;;32.20;19.55;;;;;;;6.05;100.00;101653.59;6247359;23;20027;-80
2022/03/29 03:20:24;;;;;;;41.88;19.98;;;;;;;6.07;100.00;101658.84;6223069;23;20023;-79
2022/03/29 03:22:52;;;;;;;37.17;21.23;;;;;;;6.08;100.00;101652.78;6231539;23;20020;-80
2022/03/29 03:25:21;;;;;;;33.85;19.70;;;;;;;6.07;100.00;101644.06;6173368;23;20342;-80
2022/03/29 03:27:50;;;;;;;37.42;20.50;;;;;;;6.08;100.00;101642.31;6248131;23;20023;-80
2022/03/29 03:30:18;;;;;;;31.10;19.70;;;;;;;6.09;100.00;101647.63;6222299;23;20153;-79
2022/03/29 03:32:48;;;;;;;35.08;18.17;;;;;;;6.10;100.00;101645.88;6161417;23;20469;-80
2022/03/29 03:35:19;;;;;;;38.88;20.23;;;;;;;6.11;100.00;101645.94;6175323;23;20041;-79
2022/03/29 03:37:49;;;;;;;35.40;19.90;;;;;;;6.13;100.00;101643.38;6171908;23;20020;-80
2022/03/29 03:40:17;;;;;;;32.42;19.77;;;;;;;6.14;100.00;101642.53;6249793;23;20020;-80
2022/03/29 03:42:45;;;;;;;31.05;20.10;;;;;;;6.14;100.00;101637.28;6186933;23;20024;-80
2022/03/29 03:45:14;;;;;;;37.05;22.35;;;;;;;6.14;100.00;101632.94;6218166;23;20024;-79
2022/03/29 03:47:43;;;;;;;36.80;20.42;;;;;;;6.14;100.00;101632.94;6222876;23;20020;-80
2022/03/29 03:50:12;;;;;;;34.05;20.52;;;;;;;6.14;100.00;101622.47;6246417;23;20209;-79
2022/03/29 03:52:40;;;;;;;41.25;22.73;;;;;;;6.13;100.00;101620.72;6207041;23;20335;-79
2022/03/29 03:55:09;;;;;;;44.63;22.95;;;;;;;6.12;100.00;101618.91;6166378;23;20313;-79
2022/03/29 03:57:38;;;;;;;37.53;22.17;;;;;;;6.09;100.00;101613.59;6212455;23;20024;-79
2022/03/29 04:00:07;;;;;;;39.92;20.92;;;;;;;6.08;100.00;101617.03;6185043;23;20020;-80
2022/03/29 04:02:42;;;;;;;41.70;19.30;;;;;;;6.07;100.00;101619.59;6202086;23;20016;-80
2022/03/29 04:05:12;;;;;;;36.15;20.10;;;;;;;6.08;100.00;101616.16;6221274;23;20123;-79
2022/03/29 04:07:41;;;;;;;28.05;18.80;;;;;;;6.08;100.00;101616.16;6237490;23;20349;-79
2022/03/29 04:10:09;;;;;;;38.15;22.48;;;;;;;6.07;100.00;101615.28;6192353;23;20446;-79
2022/03/29 04:12:38;;;;;;;38.78;20.98;;;;;;;6.05;100.00;101614.34;6249940;23;20354;-79
2022/03/29 04:15:08;;;;;;;34.97;22.88;;;;;;;6.04;100.00;101604.69;6220586;23;20024;-80
2022/03/29 04:17:36;;;;;;;34.35;22.63;;;;;;;6.03;100.00;101602.91;6174214;23;20055;-80
2022/03/29 04:20:06;;;;;;;39.47;21.65;;;;;;;6.01;100.00;101605.50;6209264;23;20027;-79
2022/03/29 04:22:34;;;;;;;35.45;21.25;;;;;;;6.01;100.00;101596.72;6198824;23;20024;-79
2022/03/29 04:25:04;;;;;;;36.78;21.25;;;;;;;5.99;100.00;101601.03;6203536;23;20016;-79
2022/03/29 04:27:32;;;;;;;34.65;21.63;;;;;;;6.00;100.00;101593.22;6188040;23;20020;-79
2022/03/29 04:30:00;;;;;;;35.45;20.67;;;;;;;6.00;100.00;101587.13;6194290;23;20576;-80
2022/03/29 04:32:29;;;;;;;39.42;22.00;;;;;;;6.00;100.00;101587.13;6173858;23;20016;-79
2022/03/29 04:34:57;;;;;;;44.75;22.45;;;;;;;6.01;100.00;101586.25;6218890;23;20020;-80
2022/03/29 04:37:26;;;;;;;40.45;22.27;;;;;;;6.01;100.00;101584.56;6198922;23;20020;-79
2022/03/29 04:39:54;;;;;;;37.65;20.83;;;;;;;6.00;100.00;101585.38;6194595;23;20023;-80
2022/03/29 04:42:23;;;;;;;43.53;22.80;;;;;;;6.00;100.00;101580.16;6222917;23;20017;-79
2022/03/29 04:44:51;;;;;;;36.58;23.08;;;;;;;6.02;100.00;101588.06;6195324;23;20020;-80
2022/03/29 04:47:20;;;;;;;46.17;22.33;;;;;;;6.02;100.00;101582.81;6222306;23;20016;-79
2022/03/29 04:49:48;;;;;;;40.47;23.55;;;;;;;6.02;100.00;101585.44;6221746;23;20020;-80
2022/03/29 04:52:17;;;;;;;30.35;20.83;;;;;;;6.02;100.00;101573.22;6171509;23;20249;-79
2022/03/29 04:54:45;;;;;;;39.33;23.00;;;;;;;6.01;100.00;101579.31;6204074;23;20020;-79
2022/03/29 04:57:13;;;;;;;37.00;22.73;;;;;;;6.01;100.00;101589.78;6216582;23;20020;-79
2022/03/29 04:59:42;;;;;;;49.35;22.42;;;;;;;6.01;100.00;101584.56;6171871;23;20453;-79
2022/03/29 05:02:15;;;;;;;36.67;21.85;;;;;;;6.02;100.00;101590.66;6217017;23;20027;-79
2022/03/29 05:04:44;;;;;;;43.45;23.75;;;;;;;6.00;100.00;101582.75;6221015;23;20016;-80
2022/03/29 05:07:13;;;;;;;40.15;22.27;;;;;;;6.02;100.00;101580.22;6182989;23;20223;-79
2022/03/29 05:09:41;;;;;;;36.92;22.23;;;;;;;6.02;100.00;101577.59;6182335;23;20027;-79
2022/03/29 05:12:10;;;;;;;40.60;22.15;;;;;;;6.02;100.00;101585.44;6203223;23;20234;-79
2022/03/29 05:14:38;;;;;;;43.50;24.05;;;;;;;6.01;100.00;101581.94;6161328;23;20024;-79
2022/03/29 05:17:07;;;;;;;36.50;22.98;;;;;;;6.01;100.00;101589.78;6216588;23;20104;-79
2022/03/29 05:19:36;;;;;;;41.05;21.63;;;;;;;6.02;100.00;101586.31;6197167;23;20027;-79
2022/03/29 05:22:04;;;;;;;38.83;22.42;;;;;;;6.04;100.00;101594.22;6167566;23;20040;-79
2022/03/29 05:24:33;;;;;;;45.42;24.55;;;;;;;6.04;100.00;101589.00;6235198;23;20020;-79
2022/03/29 05:27:01;;;;;;;41.05;22.73;;;;;;;6.03;100.00;101584.56;6188006;23;20320;-80
2022/03/29 05:29:30;;;;;;;44.33;22.67;;;;;;;6.02;100.00;101580.22;6198370;23;20020;-80
2022/03/29 05:32:00;;;;;;;46.65;23.80;;;;;;;6.02;100.00;101580.22;6191508;23;20012;-80
2022/03/29 05:34:29;;;;;;;39.33;23.53;;;;;;;6.03;100.00;101572.41;6198769;23;20028;-80
2022/03/29 05:36:57;;;;;;;37.83;23.52;;;;;;;6.04;100.00;101578.53;6244443;23;20323;-80
2022/03/29 05:39:25;;;;;;;44.38;23.33;;;;;;;6.04;100.00;101565.44;6222879;23;20027;-80
2022/03/29 05:41:54;;;;;;;36.50;23.00;;;;;;;6.04;100.00;101570.69;6157222;23;20019;-80
2022/03/29 05:44:22;;;;;;;43.55;23.60;;;;;;;6.07;100.00;101570.78;6219868;23;20020;-80
2022/03/29 05:49:39;;;;;;;37.10;23.00;;;;;;;6.11;100.00;101562.19;6221382;23;20016;-80
2022/03/29 05:52:08;;;;;;;37.75;21.27;;;;;;;6.12;100.00;101563.97;6182097;23;20020;-80
2022/03/29 05:54:36;;;;;;;41.00;23.38;;;;;;;6.14;100.00;101561.41;6221662;23;20020;-80
2022/03/29 05:57:06;;;;;;;39.65;22.13;;;;;;;6.16;100.00;101560.63;6163726;23;20016;-80
2022/03/29 05:59:36;;;;;;;40.03;24.40;;;;;;;6.17;100.00;101557.16;6159627;23;20031;-80
2022/03/29 06:02:04;;;;;;;36.60;23.27;;;;;;;6.18;100.00;101560.66;6191783;23;20016;-80
2022/03/29 06:04:36;;;;;;;49.47;24.55;;;;;;;6.19;100.00;101563.31;6220332;23;20016;-82
2022/03/29 06:07:07;;;;;;;39.17;23.77;;;;;;;6.20;100.00;101564.19;6193266;23;20067;-81
2022/03/29 06:09:36;;;;;;;46.92;24.10;;;;;;;6.21;100.00;101566.88;6189975;23;20024;-81
2022/03/29 06:12:06;;;;;;;41.78;24.70;;;;;;;6.22;100.00;101575.63;6211635;23;20020;-81
2022/03/29 06:14:35;;;;;;;40.42;22.23;;;;;;;6.22;100.00;101570.41;6219786;23;20020;-81
2022/03/29 06:17:04;;;;;;;35.60;22.08;;;;;;;6.23;100.00;101578.28;6250999;23;20012;-81
2022/03/29 06:19:34;;;;;;;40.53;24.42;;;;;;;6.25;100.00;101570.47;6223521;23;20023;-81
2022/03/29 06:22:03;;;;;;;38.28;24.33;;;;;;;6.25;100.00;101567.88;6220269;23;20016;-80
2022/03/29 06:24:32;;;;;;;36.47;24.67;;;;;;;6.25;100.00;101573.97;6185449;23;20024;-81
2022/03/29 06:27:01;;;;;;;38.90;24.17;;;;;;;6.28;100.00;101567.09;6161621;23;20585;-81
2022/03/29 06:29:35;;;;;;;41.83;22.30;;;;;;;6.29;100.00;101579.34;6199275;23;20130;-82
2022/03/29 07:19:15;;;;;;;24.13;12.40;;;;;;;6.56;100.00;101584.53;5710128;22;1308263;-79
2022/03/29 07:21:44;;;;;;;28.70;12.20;;;;;;;6.58;100.00;101577.66;6097964;23;20036;-79
2022/03/29 07:24:12;;;;;;;26.45;11.38;;;;;;;6.60;100.00;101579.47;6127613;23;20029;-80
2022/03/29 07:26:41;;;;;;;31.80;12.93;;;;;;;6.62;100.00;101577.78;6083886;23;20041;-81
2022/03/29 07:29:16;;;;;;;21.92;11.57;;;;;;;6.66;100.00;101572.66;6084691;23;20028;-80
2022/03/29 07:31:45;;;;;;;25.42;12.35;;;;;;;6.68;100.00;101573.59;6105086;23;20014;-80
2022/03/29 07:34:14;;;;;;;30.80;12.82;;;;;;;6.70;100.00;101569.28;6110064;23;20032;-80
2022/03/29 07:36:42;;;;;;;26.27;11.57;;;;;;;6.74;100.00;101564.16;6041066;23;20036;-80
2022/03/29 07:39:11;;;;;;;27.88;12.18;;;;;;;6.78;100.00;101571.28;6100487;23;20208;-80
2022/03/29 07:41:40;;;;;;;24.85;12.15;;;;;;;6.80;100.00;101561.72;6075751;23;20021;-81
2022/03/29 07:44:09;;;;;;;33.13;13.10;;;;;;;6.83;100.00;101559.22;6086221;23;20025;-81
2022/03/29 07:46:38;;;;;;;25.73;11.65;;;;;;;6.86;100.00;101555.78;6127192;23;20025;-81
2022/03/29 07:49:07;;;;;;;24.10;9.98;;;;;;;6.91;100.00;101553.31;6026400;23;20128;-80
2022/03/29 07:51:56;;;;;;;23.65;10.43;;;;;;;6.94;100.00;101558.66;6120832;23;20029;-80
2022/03/29 07:54:25;;;;;;;24.75;9.10;;;;;;;6.96;100.00;101544.75;6083620;23;20021;-80
2022/03/29 07:56:53;;;;;;;35.45;9.15;;;;;;;7.00;100.00;101543.09;6080521;23;20021;-79
2022/03/29 07:59:22;;;;;;;23.02;8.68;;;;;;;7.08;100.00;101540.69;6129344;23;20470;-80
2022/03/29 08:01:51;;;;;;;34.15;8.43;;;;;;;7.15;100.00;101542.66;6099491;23;20018;-80
2022/03/29 08:04:23;;;;;;;25.27;8.07;;;;;;;7.21;100.00;101540.19;6131816;23;20355;-80
2022/03/29 08:06:52;;;;;;;20.60;8.50;;;;;;;7.28;100.00;101536.91;6070780;23;20017;-79
2022/03/29 08:09:20;;;;;;;18.92;7.25;;;;;;;7.35;100.00;101545.81;6106345;23;20024;-79
2022/03/29 08:11:49;;;;;;;23.13;7.70;;;;;;;7.41;100.00;101546.00;6099881;23;20021;-80
2022/03/29 08:14:18;;;;;;;26.27;7.85;;;;;;;7.45;100.00;101552.19;6084517;23;20024;-80
2022/03/29 08:16:46;;;;;;;21.17;7.88;;;;;;;7.49;100.00;101547.09;6076634;23;20029;-82
2022/03/29 08:19:15;;;;;;;20.88;8.07;;;;;;;7.52;100.00;101541.91;6050032;23;20018;-81
2022/03/29 08:21:49;;;;;;;23.40;8.68;;;;;;;7.51;100.00;101555.00;6069253;23;20613;-81
2022/03/29 08:24:18;;;;;;;25.33;8.75;;;;;;;7.53;100.00;101546.31;6100605;23;20456;-81
2022/03/29 08:26:49;;;;;;;23.50;8.27;;;;;;;7.48;100.00;101550.53;6069636;23;20025;-80
2022/03/29 08:29:18;;;;;;;21.13;8.23;;;;;;;7.44;100.00;101551.31;6068456;23;20451;-79
2022/03/29 08:31:49;;;;;;;26.23;8.47;;;;;;;7.42;100.00;101546.03;6127780;23;20041;-80
2022/03/29 08:34:18;;;;;;;18.33;7.22;;;;;;;7.40;100.00;101552.97;6098735;23;20022;-80
2022/03/29 08:36:49;;;;;;;24.48;7.70;;;;;;;7.39;100.00;101545.03;6102070;23;20018;-79
2022/03/29 08:39:18;;;;;;;21.05;7.15;;;;;;;7.38;100.00;101544.16;6091310;23;20021;-80
2022/03/29 08:42:07;;;;;;;24.27;7.40;;;;;;;7.38;100.00;101543.28;6101842;23;20024;-80
2022/03/29 08:44:41;;;;;;;20.73;7.47;;;;;;;7.40;100.00;101546.84;6125700;23;20048;-80
2022/03/29 08:47:12;;;;;;;21.92;6.88;;;;;;;7.38;100.00;101538.94;6130163;23;20037;-81
2022/03/29 08:49:42;;;;;;;18.75;7.55;;;;;;;7.38;100.00;101545.91;6103735;23;20386;-80
2022/03/29 08:52:11;;;;;;;22.50;7.25;;;;;;;7.35;100.00;101537.94;6093672;23;20022;-81
2022/03/29 08:54:40;;;;;;;24.15;7.60;;;;;;;7.33;100.00;101540.53;6117164;23;20212;-81
2022/03/29 08:57:10;;;;;;;22.52;6.82;;;;;;;7.35;100.00;101533.63;6067861;23;20033;-81
2022/03/29 08:59:40;;;;;;;20.97;8.20;;;;;;;7.40;100.00;101537.22;6101253;23;20029;-80
2022/03/29 09:02:11;;;;;;;16.25;6.80;;;;;;;7.43;100.00;101536.44;6080177;23;20029;-80
2022/03/29 09:04:40;;;;;;;26.23;7.38;;;;;;;7.47;100.00;101532.19;6101981;23;20026;-80
2022/03/29 09:07:10;;;;;;;17.85;5.70;;;;;;;7.50;100.00;101540.09;6095860;23;20420;-81
2022/03/29 09:09:40;;;;;;;22.83;7.30;;;;;;;7.55;100.00;101530.63;6085108;23;20018;-81
2022/03/29 09:12:10;;;;;;;28.08;7.28;;;;;;;7.57;100.00;101529.81;6038855;23;20351;-81
2022/03/29 09:14:54;;;;;;;20.98;6.00;;;;;;;7.58;100.00;101522.81;6130418;23;20032;-80
2022/03/29 09:17:46;;;;;;;17.73;5.47;;;;;;;7.58;100.00;101521.13;6101111;23;20466;-81
2022/03/29 09:20:22;;;;;;;28.35;5.95;;;;;;;7.63;100.00;101529.09;6097657;23;20022;-80
2022/03/29 09:22:55;;;;;;;25.20;5.85;;;;;;;7.68;100.00;101522.22;6079400;23;20014;-80
2022/03/29 09:25:38;;;;;;;22.52;6.13;;;;;;;7.77;100.00;101527.72;6091605;23;20029;-80
2022/03/29 09:28:13;;;;;;;17.90;5.75;;;;;;;7.76;100.00;101523.31;6097056;23;20044;-80
2022/03/29 09:30:48;;;;;;;23.95;5.43;;;;;;;7.76;100.00;101525.94;6071221;23;20347;-80
2022/03/29 09:33:20;;;;;;;24.33;6.60;;;;;;;7.78;100.00;101529.47;6089851;23;20022;-81
2022/03/29 09:36:04;;;;;;;26.02;6.10;;;;;;;7.79;100.00;101527.75;6098161;23;20227;-80
2022/03/29 09:38:44;;;;;;;27.33;6.25;;;;;;;7.83;100.00;101524.38;6123671;23;20022;-81
2022/03/29 09:41:32;;;;;;;16.88;5.53;;;;;;;7.84;100.00;101526.13;6094307;23;20022;-81
2022/03/29 09:44:11;;;;;;;32.05;5.82;;;;;;;7.85;100.00;101527.91;6124972;23;20036;-81
2022/03/29 09:46:59;;;;;;;22.73;6.25;;;;;;;7.87;100.00;101526.22;6089253;23;20033;-81
2022/03/29 09:49:28;;;;;;;18.25;5.22;;;;;;;7.88;100.00;101524.47;6093065;23;20018;-81
2022/03/29 09:52:16;;;;;;;12.45;4.95;;;;;;;7.80;100.00;101530.41;6103998;23;20118;-81
2022/03/29 09:55:15;;;;;;;18.23;5.03;;;;;;;7.68;100.00;101530.09;6114422;23;20592;-81
2022/03/29 09:57:51;;;;;;;18.77;5.40;;;;;;;7.61;100.00;101521.16;6057849;23;20248;-80
2022/03/29 10:00:29;;;;;;;19.83;5.40;;;;;;;7.51;100.00;101520.91;6127478;23;20018;-80
2022/03/29 10:03:01;;;;;;;24.42;6.32;;;;;;;7.51;100.00;101523.53;6077603;23;20145;-80
2022/03/29 10:05:31;;;;;;;20.58;5.70;;;;;;;7.50;100.00;101524.38;6126612;23;20025;-80
2022/03/29 10:10:51;;;;;;;20.15;5.57;;;;;;;7.47;100.00;101511.19;6115189;23;19916;-80
2022/03/29 10:13:23;;;;;;;21.25;6.50;;;;;;;7.47;100.00;101514.69;6105460;23;20009;-81
2022/03/29 10:15:55;;;;;;;20.70;6.07;;;;;;;7.50;100.00;101519.13;6089872;23;20049;-80
2022/03/29 10:18:27;;;;;;;18.77;6.53;;;;;;;7.52;100.00;101517.44;6081791;23;20022;-80
2022/03/29 10:20:56;;;;;;;18.25;7.07;;;;;;;7.54;100.00;101513.09;6074533;23;20022;-81
2022/03/29 10:23:28;;;;;;;12.85;5.43;;;;;;;7.52;100.00;101504.31;6080145;23;20021;-82
2022/03/29 10:25:59;;;;;;;22.42;6.28;;;;;;;7.58;100.00;101499.22;6083208;23;20061;-80
2022/03/29 10:28:28;;;;;;;23.70;6.20;;;;;;;7.69;100.00;101507.38;6128152;23;20460;-81
2022/03/29 10:30:57;;;;;;;19.67;6.28;;;;;;;7.76;100.00;101499.69;6126920;23;20014;-81
2022/03/29 10:33:29;;;;;;;18.75;6.30;;;;;;;7.78;100.00;101503.25;6071296;23;20028;-82
2022/03/29 10:36:07;;;;;;;17.08;5.85;;;;;;;7.80;100.00;101500.66;6069837;23;20025;-80
2022/03/29 10:38:48;;;;;;;21.67;6.32;;;;;;;7.78;100.00;101505.88;6102553;23;20037;-79
2022/03/29 10:41:26;;;;;;;;;;;;;;;7.81;100.00;101512.94;6093593;23;20022;-79
2022/03/29 10:44:14;;;;;;;17.60;5.68;;;;;;;7.87;100.00;101505.22;6097860;23;20484;-81
2022/03/29 10:46:46;;;;;;;17.92;6.35;;;;;;;7.90;100.00;101505.31;6128319;23;20026;-82
2022/03/29 10:49:32;;;;;;;18.92;6.57;;;;;;;7.91;100.00;101501.81;6093286;23;20022;-82
2022/03/29 10:52:04;;;;;;;19.52;5.85;;;;;;;7.95;100.00;101500.16;6047831;23;20029;-82
2022/03/29 10:54:37;;;;;;;19.77;6.75;;;;;;;7.99;100.00;101496.75;6088553;23;20029;-83
2022/03/29 10:57:28;;;;;;;20.83;7.72;;;;;;;8.02;100.00;101491.59;6036675;23;20082;-81
2022/03/29 11:00:12;;;;;;;24.42;6.70;;;;;;;8.05;100.00;101496.00;6068229;23;20017;-80
2022/03/29 11:03:13;;;;;;;11.50;5.93;;;;;;;8.05;100.00;101485.50;6086922;23;20313;-80
2022/03/29 11:06:11;;;;;;;;;;;;;;;8.07;100.00;101484.72;6082686;23;20021;-80
2022/03/29 11:08:47;;;;;;;21.70;6.32;;;;;;;8.09;100.00;101487.34;6087540;23;19924;-80
2022/03/29 11:11:54;;;;;;;18.83;6.25;;;;;;;8.13;100.00;101484.84;6057833;23;20014;-80
2022/03/29 11:14:35;;;;;;;16.48;5.78;;;;;;;8.19;100.00;101465.72;6104964;23;20022;-80
2022/03/29 11:17:06;;;;;;;24.02;6.22;;;;;;;8.25;100.00;101471.13;6069432;23;20026;-80
2022/03/29 11:19:46;;;;;;;19.45;6.57;;;;;;;8.30;100.00;101477.38;6127596;23;20029;-82
2022/03/29 11:22:30;;;;;;;17.83;6.35;;;;;;;8.28;100.00;101483.41;6105368;23;20022;-81
2022/03/29 11:25:00;;;;;;;16.13;6.28;;;;;;;8.22;100.00;101481.53;6127502;23;20205;-82
2022/03/29 11:27:34;;;;;;;24.77;7.03;;;;;;;8.27;100.00;101469.41;6089478;23;20037;-81
2022/03/29 11:30:08;;;;;;;22.08;6.72;;;;;;;8.23;100.00;101466.69;6095227;23;20018;-81
2022/03/29 11:32:45;;;;;;;22.02;6.88;;;;;;;8.23;100.00;101464.94;6088027;23;20022;-79
2022/03/29 11:35:19;;;;;;;16.65;8.30;;;;;;;8.30;100.00;101465.94;6064435;23;20022;-80
2022/03/29 11:37:49;;;;;;;29.17;8.73;;;;;;;8.36;100.00;101464.38;6128604;23;20022;-80
2022/03/29 11:40:19;;;;;;;23.77;9.70;;;;;;;8.44;100.00;101458.44;6063550;23;20486;-80
2022/03/29 11:42:53;;;;;;;25.77;9.02;;;;;;;8.50;100.00;101461.19;6130311;23;20021;-80
2022/03/29 11:45:27;;;;;;;28.33;8.63;;;;;;;8.57;100.00;101450.84;6120152;23;20045;-81
2022/03/29 11:48:04;;;;;;;28.77;9.40;;;;;;;8.67;100.00;101440.53;6087801;23;20022;-80
2022/03/29 11:50:43;;;;;;;21.30;8.98;;;;;;;8.74;100.00;101439.78;6064552;23;20025;-80
2022/03/29 11:53:36;;;;;;;23.33;8.40;;;;;;;8.78;100.00;101434.63;6100326;23;20022;-79
2022/03/29 11:56:19;;;;;;;21.40;8.90;;;;;;;8.83;100.00;101434.72;6096978;23;20148;-79
2022/03/29 11:58:53;;;;;;;18.85;7.75;;;;;;;8.89;100.00;101440.09;6088217;23;20029;-79
2022/03/29 12:01:25;;;;;;;20.42;7.63;;;;;;;8.86;100.00;101431.25;6096568;23;20021;-79
2022/03/29 12:04:05;;;;;;;24.15;8.35;;;;;;;8.89;100.00;101436.59;6088174;23;20017;-78
2022/03/29 12:06:47;;;;;;;26.55;7.45;;;;;;;8.89;100.00;101426.06;6127525;23;20029;-79
2022/03/29 12:09:24;;;;;;;24.73;8.35;;;;;;;8.87;100.00;101423.41;6096968;23;20463;-79
2022/03/29 12:11:59;;;;;;;21.20;7.68;;;;;;;8.85;100.00;101416.38;6092994;23;20013;-79
2022/03/29 12:14:27;;;;;;;18.02;7.32;;;;;;;8.87;100.00;101423.41;6084280;23;20026;-78
2022/03/29 12:17:03;;;;;;;19.60;7.35;;;;;;;8.87;100.00;101412.03;6071107;23;20145;-78
2022/03/29 12:19:34;;;;;;;23.52;8.13;;;;;;;8.85;100.00;101409.38;6094762;23;20029;-79
2022/03/29 12:22:08;;;;;;;25.73;7.60;;;;;;;8.83;100.00;101411.06;6079480;23;20026;-79
2022/03/29 12:24:42;;;;;;;19.77;8.05;;;;;;;8.87;100.00;101404.13;6088618;23;20037;-80
2022/03/29 12:27:14;;;;;;;23.73;7.85;;;;;;;8.86;100.00;101397.97;6114887;23;20363;-81